Coral Gables, Florida
Current Conditions -  °F | °C
As of 8:28 AM on Thursday 23 Oct 2014 (Local Time) from KMIA Reporting Station
Light Rain Light Rain  
Wind Chill: 75°   Ceiling: 1700
Heat Index: 75°   Visibility: 10mi
Dew Point: 72°   Wind: 5mph
Humidity: 90%   Direction: 350°N
Pressure: 29.92"   Gusts: NA
Location:  25.75°N, 80.26°W
Report Text: KMIA 231228Z 35004KT 10SM -RA BKN017 OVC046 24/22 A2992 RMK AO2 P0001 T02390222 $
Loading
Personal Weather Stations






























Interactive Weather Map
Tropical Storm Tracking
New forecast layout! Learn more

10-Day Weather Forecast

Advertisements
Track Severe Weather on mobile